Terminal Aerodrome Forecast
Issued by NWS

Home | Current Version | Previous Version | Text Only | Print | Product List | Glossary On
Versions: 1 2 3 4 5 6 7 8 9 10 11 12 13 14 15 16 17
000
FTUS43 KAPX 210543
TAFTVC
TAF
KTVC 210543Z 2106/2206 00000KT P6SM OVC035
     FM211300 16004KT P6SM OVC026
     FM220200 17006KT P6SM SCT050 OVC070
     FM220500 17007KT P6SM SCT050 OVC150=

USA.gov is the U.S. government's official web portal to all federal, state and local government web resources and services.